Time;durP1;ratioP1;P1;durP2;ratioP2;P2;SDS_P1;SDS_P2;PMS_P1;PMS_P2;Temp;Humidity;BMP_temperature;BMP_pressure;BME280_temperature;BME280_humidity;BME280_pressure;Samples;Min_cycle;Max_cycle;Signal;HPM_P1;HPM_P2
2023/01/10 00:00:20;;;;;;;20.75;3.03;;;4.20;99.90;;;;;;5043654;28;20490;-71
2023/01/10 00:02:45;;;;;;;12.55;2.33;;;4.20;99.90;;;;;;5466780;22;20044;-83
2023/01/10 00:05:11;;;;;;;17.42;2.90;;;4.20;99.90;;;;;;5039998;28;20021;-82
2023/01/10 00:07:36;;;;;;;17.25;3.03;;;4.10;99.90;;;;;;5055995;28;20446;-83
2023/01/10 00:10:02;;;;;;;15.48;2.50;;;4.10;99.90;;;;;;5047393;28;20176;-82
2023/01/10 00:15:12;;;;;;;11.00;2.20;;;4.10;99.90;;;;;;5060490;28;20116;-82
2023/01/10 00:17:38;;;;;;;19.15;2.47;;;4.10;99.90;;;;;;5056827;28;20546;-81
2023/01/10 00:20:04;;;;;;;13.55;1.95;;;4.10;99.90;;;;;;5043280;28;20028;-83
2023/01/10 00:22:29;;;;;;;14.45;2.28;;;4.10;99.90;;;;;;5062551;28;20078;-82
2023/01/10 00:24:55;;;;;;;21.60;3.00;;;4.10;99.90;;;;;;5063157;28;20495;-82
2023/01/10 00:27:23;;;;;;;15.52;3.00;;;4.10;99.90;;;;;;5043759;28;20076;-82
2023/01/10 00:29:52;;;;;;;14.07;2.40;;;4.20;99.90;;;;;;5047539;28;20661;-82
2023/01/10 00:32:21;;;;;;;13.55;2.30;;;4.10;99.90;;;;;;5060919;28;20394;-82
2023/01/10 00:34:47;;;;;;;16.48;2.70;;;4.10;99.90;;;;;;5042233;28;20029;-82
2023/01/10 00:37:13;;;;;;;18.85;2.50;;;4.10;99.90;;;;;;5044026;28;20035;-82
2023/01/10 00:39:39;;;;;;;22.92;2.95;;;4.20;99.90;;;;;;5062508;28;20028;-83
2023/01/10 00:44:49;;;;;;;21.77;2.67;;;4.10;99.90;;;;;;5043210;28;20084;-82
2023/01/10 00:47:15;;;;;;;17.73;2.33;;;4.20;99.90;;;;;;5044218;28;20040;-82
2023/01/10 00:49:41;;;;;;;16.38;2.53;;;4.20;99.90;;;;;;5045606;28;20487;-82
2023/01/10 00:52:06;;;;;;;13.85;2.42;;;4.20;99.90;;;;;;5063878;28;20048;-82
2023/01/10 00:54:32;;;;;;;18.05;2.30;;;4.20;99.90;;;;;;5033981;28;20025;-82
2023/01/10 00:56:58;;;;;;;22.98;2.80;;;4.20;99.90;;;;;;5064227;28;20043;-84
2023/01/10 00:59:24;;;;;;;16.13;2.63;;;4.20;99.90;;;;;;5043758;28;20024;-82
2023/01/10 01:01:51;;;;;;;12.15;2.22;;;4.20;99.90;;;;;;5065030;28;20035;-82
2023/01/10 01:04:17;;;;;;;19.08;2.85;;;4.20;99.90;;;;;;5046170;28;20048;-83
2023/01/10 01:06:44;;;;;;;18.50;2.72;;;4.20;99.90;;;;;;5037083;28;20123;-82
2023/01/10 01:09:10;;;;;;;14.38;2.35;;;4.20;99.90;;;;;;5046895;28;20028;-83
2023/01/10 01:11:35;;;;;;;18.88;2.67;;;4.20;99.90;;;;;;5043090;28;20043;-83
2023/01/10 01:14:01;;;;;;;17.60;2.78;;;4.20;99.90;;;;;;5059908;28;20047;-82
2023/01/10 01:16:27;;;;;;;21.42;2.72;;;4.10;99.90;;;;;;5043161;28;20032;-81
2023/01/10 01:18:53;;;;;;;17.52;3.03;;;4.10;99.90;;;;;;5042385;28;20056;-82
2023/01/10 01:21:20;;;;;;;15.70;2.53;;;4.10;99.90;;;;;;5031594;28;20043;-83
2023/01/10 01:23:45;;;;;;;13.77;2.08;;;4.00;99.90;;;;;;5042123;28;20028;-83
2023/01/10 01:26:11;;;;;;;14.55;2.00;;;4.00;99.90;;;;;;5043831;28;20483;-83
2023/01/10 01:28:37;;;;;;;16.10;2.25;;;4.00;99.90;;;;;;5042324;28;21254;-82
2023/01/10 01:31:09;;;;;;;10.40;2.15;;;3.90;99.90;;;;;;5060996;28;20064;-82
2023/01/10 01:33:35;;;;;;;14.45;2.03;;;3.90;99.90;;;;;;5056770;28;20036;-83
2023/01/10 01:36:01;;;;;;;12.13;2.17;;;3.90;99.90;;;;;;5057808;28;20108;-83
2023/01/10 01:38:26;;;;;;;18.90;2.20;;;3.90;99.90;;;;;;5040194;28;20453;-82
2023/01/10 01:40:52;;;;;;;16.38;2.40;;;3.90;99.90;;;;;;5043088;28;20642;-83
2023/01/10 01:43:24;;;;;;;22.30;2.05;;;3.90;99.90;;;;;;5060806;28;20043;-83
2023/01/10 01:45:51;;;;;;;18.90;2.47;;;3.90;99.90;;;;;;5057045;28;20032;-83
2023/01/10 01:48:22;;;;;;;12.77;2.05;;;3.90;99.90;;;;;;5062332;28;20085;-82
2023/01/10 01:51:04;;;;;;;14.93;2.08;;;3.90;99.90;;;;;;5058030;28;20380;-83
2023/01/10 01:53:49;;;;;;;16.55;2.10;;;3.90;99.90;;;;;;5044410;28;20114;-82
2023/01/10 01:56:20;;;;;;;16.98;2.67;;;3.90;99.90;;;;;;5051640;28;20107;-83
2023/01/10 01:59:16;;;;;;;16.50;2.37;;;4.00;99.90;;;;;;5064338;28;20037;-83
2023/01/10 02:01:45;;;;;;;15.35;2.70;;;4.00;99.90;;;;;;5055336;28;20024;-83
2023/01/10 02:04:20;;;;;;;17.42;2.13;;;4.10;99.90;;;;;;5035759;28;20128;-82
2023/01/10 02:06:49;;;;;;;12.77;1.50;;;4.10;99.90;;;;;;5059815;28;20064;-82
2023/01/10 02:09:18;;;;;;;14.40;2.42;;;4.10;99.90;;;;;;5043183;28;20058;-82
2023/01/10 02:11:44;;;;;;;13.45;1.98;;;4.20;99.90;;;;;;5061366;28;20044;-82
2023/01/10 02:14:11;;;;;;;14.45;1.85;;;4.20;99.90;;;;;;5037824;28;20036;-83
2023/01/10 02:16:37;;;;;;;15.95;1.90;;;4.20;99.90;;;;;;5048283;28;20042;-82
2023/01/10 02:19:11;;;;;;;13.93;2.15;;;4.20;99.90;;;;;;5040094;28;20448;-82
2023/01/10 02:22:01;;;;;;;12.55;1.90;;;4.20;99.90;;;;;;5040364;28;20043;-82
2023/01/10 02:24:38;;;;;;;11.55;2.00;;;4.20;99.90;;;;;;5059853;28;20730;-82
2023/01/10 02:27:48;;;;;;;18.02;2.55;;;4.20;99.90;;;;;;5057454;28;20175;-83
2023/01/10 02:30:29;;;;;;;10.57;1.92;;;4.20;99.90;;;;;;5034338;28;20033;-82
2023/01/10 02:33:07;;;;;;;20.10;1.98;;;4.20;99.90;;;;;;5045416;28;20028;-83
2023/01/10 02:35:50;;;;;;;13.00;2.10;;;4.30;99.90;;;;;;5025750;28;20436;-81
2023/01/10 02:38:35;;;;;;;11.52;2.22;;;4.30;99.90;;;;;;5060206;28;20036;-83
2023/01/10 02:41:14;;;;;;;10.77;2.30;;;4.40;99.90;;;;;;5062839;28;20167;-83
2023/01/10 02:43:53;;;;;;;12.07;2.25;;;4.40;99.90;;;;;;5063552;28;20054;-83
2023/01/10 02:46:27;;;;;;;20.02;3.05;;;4.50;99.90;;;;;;5059486;28;20032;-83
2023/01/10 02:48:53;;;;;;;16.88;2.78;;;4.60;99.90;;;;;;5060242;28;20028;-82
2023/01/10 02:51:28;;;;;;;22.20;3.70;;;4.60;99.90;;;;;;5048396;28;20086;-83
2023/01/10 02:54:28;;;;;;;23.05;2.90;;;4.70;99.90;;;;;;5048393;28;20767;-83
2023/01/10 02:57:41;;;;;;;16.35;1.77;;;4.80;99.90;;;;;;5040698;28;20044;-82
2023/01/10 03:00:13;;;;;;;18.85;2.97;;;4.90;99.90;;;;;;4991286;28;20057;-82
2023/01/10 03:02:38;;;;;;;19.02;3.15;;;5.00;99.90;;;;;;5044301;28;20120;-82
2023/01/10 03:05:23;;;;;;;18.73;2.65;;;5.10;99.90;;;;;;5031813;28;20040;-87
2023/01/10 03:08:06;;;;;;;19.17;2.85;;;5.00;99.90;;;;;;5024129;28;20138;-83
2023/01/10 03:10:42;;;;;;;18.38;3.40;;;5.10;99.90;;;;;;5054592;28;20122;-83
2023/01/10 03:13:30;;;;;;;18.67;2.80;;;5.10;99.90;;;;;;5043038;28;20040;-83
2023/01/10 03:15:57;;;;;;;17.70;2.30;;;5.10;99.90;;;;;;5042902;28;20085;-84
2023/01/10 03:18:29;;;;;;;14.60;2.40;;;5.10;99.90;;;;;;5040960;28;20025;-83
2023/01/10 03:20:57;;;;;;;18.13;2.45;;;5.10;99.90;;;;;;5042912;28;20119;-83
2023/01/10 03:23:24;;;;;;;17.35;2.25;;;5.10;99.90;;;;;;5061822;28;20719;-84
2023/01/10 03:25:54;;;;;;;20.45;2.58;;;5.20;99.90;;;;;;5039381;28;20039;-83
2023/01/10 03:28:37;;;;;;;13.55;1.88;;;5.20;99.90;;;;;;5042918;28;20029;-82
2023/01/10 03:31:12;;;;;;;15.25;2.03;;;5.20;99.90;;;;;;5060229;28;20059;-83
2023/01/10 03:33:38;;;;;;;17.00;2.10;;;5.30;99.90;;;;;;5040977;28;20464;-83
2023/01/10 03:36:22;;;;;;;8.32;1.42;;;5.40;99.90;;;;;;5058766;28;20020;-83
2023/01/10 03:38:54;;;;;;;10.77;2.40;;;5.40;99.90;;;;;;5042655;28;20032;-83
2023/01/10 03:41:59;;;;;;;12.93;1.67;;;5.50;99.90;;;;;;5057766;28;20115;-83
2023/01/10 03:44:47;;;;;;;10.50;2.35;;;5.50;99.90;;;;;;5045405;28;20263;-83
2023/01/10 03:47:35;;;;;;;14.82;2.33;;;5.60;99.90;;;;;;5058200;28;20032;-82
2023/01/10 03:50:23;;;;;;;19.80;2.78;;;5.60;99.90;;;;;;5041631;28;20028;-83
2023/01/10 03:52:48;;;;;;;14.57;2.50;;;5.60;99.90;;;;;;5033961;28;20048;-82
2023/01/10 03:55:19;;;;;;;13.57;1.85;;;5.60;99.90;;;;;;5056361;28;20493;-82
2023/01/10 03:57:45;;;;;;;20.05;3.03;;;5.70;99.90;;;;;;5040099;28;20037;-83
2023/01/10 04:00:12;;;;;;;18.95;2.53;;;5.80;99.90;;;;;;5036613;28;20029;-82
2023/01/10 04:02:38;;;;;;;19.95;2.38;;;5.90;99.90;;;;;;5041581;28;20048;-82
2023/01/10 04:05:04;;;;;;;19.63;2.15;;;5.90;99.90;;;;;;5054854;28;20115;-83
2023/01/10 04:07:30;;;;;;;17.30;2.67;;;5.90;99.90;;;;;;5036330;28;20024;-83
2023/01/10 04:09:56;;;;;;;19.42;2.97;;;5.90;99.90;;;;;;5058970;28;20391;-84
2023/01/10 04:12:22;;;;;;;19.15;2.10;;;6.00;99.90;;;;;;5059534;28;20035;-82
2023/01/10 04:14:47;;;;;;;16.23;2.60;;;6.00;99.90;;;;;;5059139;28;20087;-83
2023/01/10 04:17:14;;;;;;;18.60;3.38;;;6.00;99.90;;;;;;5058559;28;20025;-83
2023/01/10 04:19:40;;;;;;;20.83;3.05;;;6.00;99.90;;;;;;5058946;28;20055;-83
2023/01/10 04:22:06;;;;;;;14.05;2.40;;;6.00;99.90;;;;;;5042981;28;20467;-82
2023/01/10 04:24:32;;;;;;;19.77;2.30;;;6.10;99.90;;;;;;5041565;28;20024;-83
2023/01/10 04:26:58;;;;;;;17.75;2.92;;;6.10;99.90;;;;;;5040049;28;20028;-83
2023/01/10 04:29:23;;;;;;;14.88;2.78;;;6.20;99.90;;;;;;5060131;28;20031;-82
2023/01/10 04:31:49;;;;;;;27.38;3.00;;;6.30;99.90;;;;;;5042327;28;20103;-83
2023/01/10 04:34:15;;;;;;;14.98;1.92;;;6.20;99.90;;;;;;5059970;28;20558;-83
2023/01/10 04:36:41;;;;;;;16.48;2.25;;;6.20;99.90;;;;;;5057071;28;20029;-82
2023/01/10 04:39:07;;;;;;;17.55;3.00;;;6.10;99.90;;;;;;5039231;28;20115;-83
2023/01/10 04:41:33;;;;;;;14.15;1.90;;;6.00;99.90;;;;;;5026701;28;20033;-83
2023/01/10 04:43:58;;;;;;;14.65;1.88;;;6.00;99.90;;;;;;5044092;28;20033;-83
2023/01/10 04:46:24;;;;;;;11.35;1.92;;;5.90;99.90;;;;;;5043227;28;20032;-82
2023/01/10 04:48:50;;;;;;;20.15;2.58;;;5.80;99.90;;;;;;5053992;28;20025;-83
2023/01/10 04:51:15;;;;;;;15.43;2.47;;;5.70;99.90;;;;;;5042051;28;20204;-83
2023/01/10 04:53:41;;;;;;;19.42;2.35;;;5.70;99.90;;;;;;5037607;28;20032;-83
2023/01/10 04:56:14;;;;;;;17.40;2.40;;;5.80;99.90;;;;;;5024943;28;20085;-84
2023/01/10 04:58:40;;;;;;;15.68;2.20;;;5.80;99.90;;;;;;5047985;28;20510;-83
2023/01/10 05:01:08;;;;;;;21.23;2.40;;;5.80;99.90;;;;;;5034618;28;20068;-82
2023/01/10 05:03:33;;;;;;;18.08;2.38;;;5.80;99.90;;;;;;5060545;28;20105;-83
2023/01/10 05:05:59;;;;;;;21.67;2.47;;;5.80;99.90;;;;;;5039920;28;20056;-83
2023/01/10 05:08:24;;;;;;;11.50;2.13;;;5.80;99.90;;;;;;5039073;28;20032;-83
2023/01/10 05:10:50;;;;;;;15.23;1.75;;;5.80;99.90;;;;;;5048321;28;20122;-82
2023/01/10 05:13:15;;;;;;;14.02;2.60;;;5.70;99.90;;;;;;5045244;28;20032;-82
2023/01/10 05:15:41;;;;;;;15.63;2.50;;;5.80;99.90;;;;;;5062488;28;20649;-83
2023/01/10 05:18:07;;;;;;;19.10;2.83;;;5.80;99.90;;;;;;5053426;28;20029;-83
2023/01/10 05:20:32;;;;;;;21.05;2.70;;;5.90;99.90;;;;;;5053543;28;20033;-83
2023/01/10 05:22:58;;;;;;;24.80;2.55;;;5.90;99.90;;;;;;5044520;28;20060;-83
2023/01/10 05:25:23;;;;;;;13.77;3.03;;;6.00;99.90;;;;;;5060170;28;20034;-83
2023/01/10 05:27:49;;;;;;;20.63;2.70;;;6.00;99.90;;;;;;5055672;28;20029;-83
2023/01/10 05:30:15;;;;;;;18.73;2.20;;;6.10;99.90;;;;;;5063243;28;20307;-83
2023/01/10 05:32:40;;;;;;;22.95;2.67;;;6.20;99.90;;;;;;5043688;28;20242;-83
2023/01/10 05:35:06;;;;;;;21.40;2.50;;;6.20;99.90;;;;;;5029167;28;20033;-83
2023/01/10 05:37:32;;;;;;;22.60;2.40;;;6.30;99.90;;;;;;5059373;28;20152;-83
2023/01/10 05:39:57;;;;;;;20.63;3.45;;;6.30;99.90;;;;;;5044482;28;20148;-82
2023/01/10 05:42:23;;;;;;;13.57;2.45;;;6.40;99.90;;;;;;5062207;28;20059;-83
2023/01/10 05:44:49;;;;;;;20.20;2.53;;;6.40;99.90;;;;;;5043794;28;20037;-83
2023/01/10 05:47:14;;;;;;;22.88;3.40;;;6.50;99.90;;;;;;5050492;28;20079;-83
2023/01/10 05:49:40;;;;;;;14.82;2.40;;;6.50;99.90;;;;;;5044541;28;20070;-83
2023/01/10 05:52:05;;;;;;;29.13;3.10;;;6.50;99.90;;;;;;5047347;28;20044;-83
2023/01/10 05:54:31;;;;;;;23.63;2.92;;;6.60;99.90;;;;;;5052926;28;20052;-83
2023/01/10 05:56:56;;;;;;;20.83;3.28;;;6.60;99.90;;;;;;5045880;28;20024;-83
2023/01/10 05:59:22;;;;;;;19.90;2.80;;;6.70;99.90;;;;;;5043430;28;20133;-83
2023/01/10 06:01:48;;;;;;;15.30;2.47;;;6.70;99.90;;;;;;5060602;28;20047;-83
2023/01/10 06:04:13;;;;;;;26.55;2.55;;;6.80;99.90;;;;;;5021424;28;20159;-83
2023/01/10 06:06:39;;;;;;;20.67;1.88;;;6.80;99.90;;;;;;5023788;28;20115;-83
2023/01/10 06:09:05;;;;;;;22.08;2.42;;;6.90;99.90;;;;;;5041442;28;20032;-83
2023/01/10 06:11:35;;;;;;;14.30;2.80;;;6.90;99.90;;;;;;5041138;28;20033;-83
2023/01/10 06:14:01;;;;;;;19.23;2.20;;;7.00;99.90;;;;;;5029275;28;20183;-83
2023/01/10 06:16:27;;;;;;;22.25;3.63;;;7.00;99.90;;;;;;5045967;28;20028;-83
2023/01/10 06:18:52;;;;;;;16.73;2.80;;;7.10;99.90;;;;;;5046892;28;20404;-83
2023/01/10 06:21:18;;;;;;;24.50;3.28;;;7.20;99.90;;;;;;5041083;28;20025;-83
2023/01/10 06:23:43;;;;;;;20.30;2.40;;;7.30;99.90;;;;;;5042272;28;20586;-84
2023/01/10 06:26:09;;;;;;;23.48;2.80;;;7.30;99.90;;;;;;5047467;28;20058;-82
2023/01/10 06:28:35;;;;;;;36.70;3.97;;;7.50;99.90;;;;;;5047858;28;20033;-83
2023/01/10 06:31:00;;;;;;;31.88;4.32;;;7.70;99.90;;;;;;5046729;28;20902;-84
2023/01/10 06:33:26;;;;;;;31.73;4.35;;;7.80;99.90;;;;;;5043167;28;20479;-82
2023/01/10 06:35:52;;;;;;;29.10;3.22;;;8.00;99.90;;;;;;5034046;28;20112;-82
2023/01/10 06:38:17;;;;;;;26.48;3.20;;;8.10;99.90;;;;;;5046947;28;20068;-83
2023/01/10 06:40:43;;;;;;;27.95;3.58;;;8.10;99.90;;;;;;5045893;28;20035;-83
2023/01/10 06:43:08;;;;;;;35.85;4.35;;;8.20;99.90;;;;;;5032466;28;20100;-83
2023/01/10 06:45:34;;;;;;;32.13;3.53;;;8.30;99.90;;;;;;5028269;28;20584;-82
2023/01/10 06:48:00;;;;;;;33.17;3.92;;;8.30;99.90;;;;;;5046495;28;20052;-83
2023/01/10 06:50:26;;;;;;;31.48;3.75;;;8.40;99.90;;;;;;5043089;28;20049;-83
2023/01/10 06:53:00;;;;;;;30.52;3.30;;;8.40;99.90;;;;;;5043721;28;20267;-84
2023/01/10 06:55:26;;;;;;;30.73;4.03;;;8.50;99.90;;;;;;5045983;28;20029;-83
2023/01/10 06:57:56;;;;;;;27.02;3.92;;;8.50;99.90;;;;;;5044527;28;20089;-83
2023/01/10 07:00:22;;;;;;;36.63;3.55;;;8.50;99.90;;;;;;5044078;28;20684;-84
2023/01/10 07:02:48;;;;;;;34.20;4.45;;;8.50;99.90;;;;;;5050015;28;20052;-83
2023/01/10 07:05:13;;;;;;;39.50;5.03;;;8.60;99.90;;;;;;5067834;28;20086;-85
2023/01/10 07:07:39;;;;;;;25.17;3.42;;;8.60;99.90;;;;;;5067603;28;20025;-82
2023/01/10 07:10:05;;;;;;;31.83;4.20;;;8.60;99.90;;;;;;5061813;28;20029;-85
2023/01/10 07:12:31;;;;;;;33.63;3.22;;;8.70;99.90;;;;;;5066321;28;20044;-84
2023/01/10 07:14:56;;;;;;;29.70;3.97;;;8.60;99.90;;;;;;5067667;28;20028;-86
2023/01/10 07:17:22;;;;;;;27.88;3.10;;;8.60;99.90;;;;;;5066736;28;20028;-85
2023/01/10 07:19:48;;;;;;;22.05;2.33;;;8.60;99.90;;;;;;5043203;28;20020;-84
2023/01/10 07:22:13;;;;;;;24.02;2.70;;;8.50;99.90;;;;;;5059168;28;20107;-85
2023/01/10 07:24:39;;;;;;;19.20;3.25;;;8.40;99.90;;;;;;5044044;28;20491;-84
2023/01/10 07:27:04;;;;;;;22.90;2.70;;;8.40;99.90;;;;;;5046775;28;20106;-84
2023/01/10 07:29:30;;;;;;;19.90;3.15;;;8.40;99.90;;;;;;5060727;28;20025;-82
2023/01/10 07:31:56;;;;;;;28.50;3.97;;;8.30;99.90;;;;;;5065254;28;20040;-84
2023/01/10 07:34:21;;;;;;;17.45;2.38;;;8.30;99.90;;;;;;4712541;28;9999905;-83
2023/01/10 07:36:47;;;;;;;21.77;2.50;;;8.20;99.90;;;;;;5066151;28;20079;-84
2023/01/10 07:39:12;;;;;;;25.33;2.42;;;8.10;99.90;;;;;;5062678;28;20021;-84
2023/01/10 07:41:38;;;;;;;22.70;3.03;;;8.10;99.90;;;;;;5044414;28;20276;-82
2023/01/10 07:44:04;;;;;;;11.57;1.95;;;8.10;99.90;;;;;;5059626;28;20034;-85
2023/01/10 07:46:29;;;;;;;18.45;2.67;;;8.00;99.90;;;;;;5061255;28;20456;-85
2023/01/10 07:48:55;;;;;;;16.02;2.00;;;8.00;99.90;;;;;;5039789;28;20863;-86
2023/01/10 07:51:20;;;;;;;15.02;2.00;;;7.90;99.90;;;;;;5042117;28;20040;-86
2023/01/10 07:53:46;;;;;;;16.75;1.83;;;7.90;99.90;;;;;;5062918;28;20573;-88
2023/01/10 07:56:12;;;;;;;15.15;2.22;;;7.90;99.90;;;;;;5048493;28;20037;-86
2023/01/10 07:58:37;;;;;;;16.20;2.13;;;7.80;99.90;;;;;;5060328;28;20577;-85
2023/01/10 08:01:05;;;;;;;15.48;2.38;;;7.80;99.90;;;;;;5065165;28;20036;-85
2023/01/10 08:03:31;;;;;;;19.85;2.25;;;7.80;99.90;;;;;;5040858;28;20045;-86
2023/01/10 08:06:02;;;;;;;14.88;2.00;;;7.80;99.90;;;;;;5046106;28;20448;-85
2023/01/10 08:08:28;;;;;;;14.10;2.38;;;7.80;99.90;;;;;;5051500;28;20491;-84
2023/01/10 08:10:55;;;;;;;22.33;2.60;;;7.90;99.90;;;;;;5043986;28;20109;-84
2023/01/10 08:13:20;;;;;;;26.20;1.85;;;7.90;99.90;;;;;;5051876;28;20109;-87
2023/01/10 08:15:49;;;;;;;23.27;2.17;;;7.90;99.90;;;;;;5066191;28;20028;-86
2023/01/10 08:18:14;;;;;;;15.93;1.70;;;7.90;99.90;;;;;;5044819;28;20033;-83
2023/01/10 08:20:40;;;;;;;13.32;1.73;;;7.90;99.90;;;;;;5048213;28;20046;-82
2023/01/10 08:23:06;;;;;;;17.38;2.35;;;7.90;99.90;;;;;;5062745;28;20059;-82
2023/01/10 08:25:31;;;;;;;17.38;2.60;;;7.90;99.90;;;;;;5045996;28;20066;-82
2023/01/10 08:27:57;;;;;;;20.23;2.00;;;7.90;99.90;;;;;;5062798;28;20147;-80
2023/01/10 08:30:23;;;;;;;16.67;2.17;;;7.90;99.90;;;;;;5053842;28;20576;-81
2023/01/10 08:32:50;;;;;;;18.38;2.08;;;8.00;99.90;;;;;;5064574;28;20063;-86
2023/01/10 08:35:17;;;;;;;16.77;1.58;;;8.00;99.90;;;;;;5061712;28;20052;-85
2023/01/10 08:37:43;;;;;;;23.67;2.58;;;8.00;99.90;;;;;;5044542;28;20413;-84
2023/01/10 08:40:09;;;;;;;15.50;1.98;;;8.00;99.90;;;;;;5061274;28;20043;-87
2023/01/10 08:42:35;;;;;;;14.13;1.92;;;8.00;99.90;;;;;;5043079;28;20029;-86
2023/01/10 08:45:01;;;;;;;17.25;1.95;;;8.00;99.90;;;;;;5065159;28;20366;-87
2023/01/10 08:47:27;;;;;;;23.38;2.47;;;8.00;99.90;;;;;;5052105;28;20464;-84
2023/01/10 08:49:53;;;;;;;8.73;1.45;;;8.00;99.90;;;;;;5043144;28;20025;-82
2023/01/10 08:52:18;;;;;;;14.23;2.20;;;8.00;99.90;;;;;;5056037;28;20046;-84
2023/01/10 08:54:44;;;;;;;7.45;0.95;;;8.00;99.90;;;;;;5059952;28;20134;-82
2023/01/10 08:57:09;;;;;;;10.25;1.83;;;8.00;99.90;;;;;;5058794;28;20024;-83
2023/01/10 08:59:35;;;;;;;9.60;1.05;;;7.90;99.90;;;;;;5055797;28;20025;-82
2023/01/10 09:02:01;;;;;;;8.43;1.45;;;7.90;99.90;;;;;;5054963;28;20021;-85
2023/01/10 09:04:28;;;;;;;7.35;1.00;;;7.80;99.90;;;;;;5040027;28;20048;-84
2023/01/10 09:06:54;;;;;;;16.73;1.52;;;7.80;99.90;;;;;;5050702;28;20094;-85
2023/01/10 09:09:20;;;;;;;4.93;1.13;;;7.80;99.90;;;;;;5048115;28;20070;-85
2023/01/10 09:11:45;;;;;;;7.38;1.15;;;7.80;99.90;;;;;;5036752;28;20486;-84
2023/01/10 09:14:11;;;;;;;8.07;1.50;;;7.80;99.90;;;;;;5053272;28;20025;-83
2023/01/10 09:16:37;;;;;;;9.65;1.25;;;7.70;99.90;;;;;;5053054;28;20071;-85
2023/01/10 09:19:02;;;;;;;11.65;1.58;;;7.70;99.90;;;;;;5039479;28;20032;-84
2023/01/10 09:21:28;;;;;;;4.55;1.02;;;7.80;99.90;;;;;;5038128;28;20082;-86
2023/01/10 09:23:54;;;;;;;2.88;0.80;;;7.80;99.90;;;;;;5052520;28;20342;-86
2023/01/10 09:26:19;;;;;;;5.07;0.80;;;7.80;99.90;;;;;;5053722;28;20623;-87
2023/01/10 09:28:45;;;;;;;3.83;0.90;;;7.80;99.90;;;;;;5056454;28;20111;-87
2023/01/10 09:31:11;;;;;;;6.65;1.30;;;7.90;99.90;;;;;;5053146;28;20149;-86
2023/01/10 09:33:40;;;;;;;10.25;1.38;;;7.90;99.90;;;;;;5058235;28;20379;-85
2023/01/10 09:36:06;;;;;;;4.68;0.95;;;7.90;99.90;;;;;;5039403;28;20203;-86
2023/01/10 09:38:31;;;;;;;5.95;0.85;;;8.00;99.90;;;;;;5043378;28;20330;-85
2023/01/10 09:41:19;;;;;;;10.43;1.10;;;8.00;99.90;;;;;;5058419;28;20029;-86
2023/01/10 09:44:13;;;;;;;16.20;1.35;;;8.10;99.90;;;;;;5062976;28;20051;-86
2023/01/10 09:47:04;;;;;;;9.68;1.02;;;8.10;99.90;;;;;;5042975;28;20067;-86
2023/01/10 09:49:50;;;;;;;11.15;1.10;;;8.10;99.90;;;;;;5060322;28;20021;-86
2023/01/10 09:52:24;;;;;;;5.97;0.88;;;8.20;99.90;;;;;;5061343;28;20040;-87
2023/01/10 09:54:54;;;;;;;7.18;0.80;;;8.20;99.90;;;;;;5063618;28;20021;-84
2023/01/10 09:57:21;;;;;;;3.33;0.65;;;8.30;99.90;;;;;;5057487;28;20028;-88
2023/01/10 09:59:50;;;;;;;3.65;1.00;;;8.30;99.90;;;;;;5050876;28;20029;-86
2023/01/10 10:02:24;;;;;;;9.02;1.20;;;8.30;99.90;;;;;;5067196;28;20235;-87
2023/01/10 10:05:17;;;;;;;11.90;1.00;;;8.30;99.90;;;;;;5046532;28;20053;-88
2023/01/10 10:07:43;;;;;;;7.28;1.35;;;8.30;99.90;;;;;;5073452;28;20077;-85
2023/01/10 10:10:20;;;;;;;13.82;1.55;;;8.40;99.90;;;;;;5070389;28;20622;-88
2023/01/10 10:13:04;;;;;;;12.57;2.03;;;8.40;99.90;;;;;;5060598;28;20040;-86
2023/01/10 10:15:47;;;;;;;9.88;1.52;;;8.40;99.90;;;;;;5060548;28;20025;-86
2023/01/10 10:18:38;;;;;;;12.18;1.65;;;8.40;99.90;;;;;;5065123;28;20329;-88
2023/01/10 10:21:15;;;;;;;14.05;2.03;;;8.50;99.90;;;;;;5043382;28;20064;-89
2023/01/10 10:24:03;;;;;;;14.32;2.10;;;8.50;99.90;;;;;;5075445;28;20805;-87
2023/01/10 10:26:33;;;;;;;12.68;1.98;;;8.60;99.90;;;;;;5065338;28;20035;-87
2023/01/10 10:29:15;;;;;;;9.95;1.50;;;8.60;99.90;;;;;;5047448;28;20024;-84
2023/01/10 10:31:49;;;;;;;12.52;1.45;;;8.60;99.90;;;;;;5062531;28;20040;-86
2023/01/10 10:34:35;;;;;;;11.00;1.80;;;8.70;99.90;;;;;;5066010;28;20024;-82
2023/01/10 10:37:18;;;;;;;7.88;1.35;;;8.70;99.90;;;;;;5058075;28;20064;-87
2023/01/10 10:39:52;;;;;;;12.60;1.42;;;8.70;99.90;;;;;;5062143;28;20025;-82
2023/01/10 10:42:18;;;;;;;8.98;1.30;;;8.80;99.90;;;;;;5057695;28;20558;-86
2023/01/10 10:44:50;;;;;;;8.05;1.58;;;8.80;99.90;;;;;;5045768;28;20119;-82
2023/01/10 10:47:19;;;;;;;10.48;1.60;;;8.80;99.90;;;;;;5066509;28;20492;-85
2023/01/10 10:50:13;;;;;;;12.98;1.48;;;8.80;99.90;;;;;;5050146;28;20064;-87
2023/01/10 10:52:39;;;;;;;10.45;1.77;;;8.90;99.90;;;;;;4992270;28;20045;-86
2023/01/10 10:55:11;;;;;;;8.30;1.60;;;8.90;99.90;;;;;;5049108;28;20036;-85
2023/01/10 10:57:38;;;;;;;7.85;1.88;;;8.90;99.90;;;;;;5053747;28;20032;-87
2023/01/10 11:00:06;;;;;;;9.88;1.65;;;9.00;99.90;;;;;;5049391;28;20048;-88
2023/01/10 11:02:40;;;;;;;13.95;1.95;;;9.00;99.90;;;;;;5059649;28;20488;-86
2023/01/10 11:05:20;;;;;;;12.32;1.80;;;9.10;99.90;;;;;;5061216;28;20090;-86
2023/01/10 11:07:47;;;;;;;9.65;1.48;;;9.10;99.90;;;;;;5042748;28;20032;-87
2023/01/10 11:10:34;;;;;;;11.07;1.20;;;9.20;99.90;;;;;;5063491;28;20028;-85
2023/01/10 11:13:02;;;;;;;7.82;1.30;;;9.30;99.90;;;;;;5059144;28;20033;-82
2023/01/10 11:15:36;;;;;;;7.22;1.15;;;9.30;99.90;;;;;;5042710;28;20132;-81
2023/01/10 11:18:15;;;;;;;4.25;0.75;;;9.40;99.90;;;;;;5061245;28;20052;-85
2023/01/10 11:20:52;;;;;;;6.47;1.30;;;9.50;99.90;;;;;;5067816;28;20381;-86
2023/01/10 11:23:23;;;;;;;3.72;0.68;;;9.60;99.90;;;;;;5059005;28;20024;-85
2023/01/10 11:25:49;;;;;;;4.82;1.00;;;9.70;99.90;;;;;;5067535;28;20129;-84
2023/01/10 11:28:17;;;;;;;4.75;0.68;;;9.70;99.90;;;;;;5046967;28;20100;-86
2023/01/10 11:30:47;;;;;;;6.15;1.15;;;9.80;99.90;;;;;;5068509;28;20032;-86
2023/01/10 11:33:27;;;;;;;3.60;0.85;;;9.80;99.90;;;;;;5050883;28;20036;-85
2023/01/10 11:36:07;;;;;;;10.55;1.02;;;9.90;99.90;;;;;;5047408;28;20024;-83
2023/01/10 11:38:34;;;;;;;6.30;1.10;;;10.00;99.90;;;;;;5065175;28;20034;-84
2023/01/10 11:41:01;;;;;;;6.65;0.98;;;10.00;99.90;;;;;;5068051;28;20024;-83
2023/01/10 11:43:36;;;;;;;4.85;1.00;;;10.10;99.90;;;;;;5049448;28;20021;-87
2023/01/10 11:46:14;;;;;;;8.18;1.10;;;10.10;99.90;;;;;;5053453;28;20043;-84
2023/01/10 11:49:00;;;;;;;5.72;1.27;;;10.20;99.90;;;;;;5063475;28;20036;-88
2023/01/10 11:51:36;;;;;;;4.68;0.90;;;10.20;99.90;;;;;;5050503;28;20128;-84
2023/01/10 11:54:04;;;;;;;4.57;0.70;;;10.20;99.90;;;;;;5066508;28;20544;-84
2023/01/10 11:56:33;;;;;;;10.25;1.42;;;10.30;99.90;;;;;;5053670;28;20102;-84
2023/01/10 11:59:11;;;;;;;17.58;2.25;;;10.30;99.90;;;;;;5051174;28;20156;-87
2023/01/10 12:01:43;;;;;;;14.80;1.63;;;10.40;99.90;;;;;;5044733;28;20090;-85
2023/01/10 12:04:19;;;;;;;11.68;2.03;;;10.40;99.90;;;;;;5055572;28;20052;-87
2023/01/10 12:06:50;;;;;;;10.38;2.00;;;10.50;99.90;;;;;;5038655;28;20231;-84
2023/01/10 12:09:38;;;;;;;15.68;2.30;;;10.50;99.90;;;;;;5044651;28;20408;-86
2023/01/10 12:12:26;;;;;;;16.63;2.65;;;10.60;99.90;;;;;;5035484;28;20044;-85
2023/01/10 12:14:53;;;;;;;20.48;2.47;;;10.70;99.90;;;;;;5033695;28;20220;-86
2023/01/10 12:17:37;;;;;;;19.10;2.83;;;10.80;99.90;;;;;;5067278;28;20267;-87
2023/01/10 12:20:05;;;;;;;34.65;3.88;;;10.80;99.90;;;;;;5049994;28;20032;-85
2023/01/10 12:22:44;;;;;;;33.40;3.92;;;10.90;99.90;;;;;;5064677;28;20028;-83
2023/01/10 12:25:15;;;;;;;37.95;3.55;;;11.00;99.90;;;;;;5067438;28;20092;-88
2023/01/10 12:27:43;;;;;;;22.98;3.88;;;11.00;99.90;;;;;;5069177;28;20028;-85
2023/01/10 12:30:15;;;;;;;46.53;4.60;;;11.00;99.90;;;;;;5048166;28;20033;-85
2023/01/10 12:32:47;;;;;;;38.90;5.03;;;11.00;99.90;;;;;;5065535;28;20060;-83
2023/01/10 12:35:31;;;;;;;39.08;4.30;;;11.10;99.90;;;;;;5046149;28;20436;-85
2023/01/10 12:38:17;;;;;;;41.58;4.63;;;11.20;99.90;;;;;;5066209;28;20028;-85
2023/01/10 12:40:46;;;;;;;41.63;4.53;;;11.20;99.90;;;;;;5046776;28;20179;-84
2023/01/10 12:46:37;;;;;;;28.70;4.28;;;11.30;99.90;;;;;;5066093;28;20062;-84
2023/01/10 12:49:13;;;;;;;41.28;4.32;;;11.40;99.90;;;;;;5044458;28;20203;-86
2023/01/10 12:51:41;;;;;;;44.95;4.65;;;11.40;99.90;;;;;;5045948;28;20131;-84
2023/01/10 12:54:28;;;;;;;43.95;4.15;;;11.50;99.90;;;;;;5046534;28;20024;-82
2023/01/10 12:56:57;;;;;;;32.40;5.53;;;11.50;99.90;;;;;;5047262;28;20029;-84
2023/01/10 12:59:37;;;;;;;40.95;4.70;;;11.60;99.90;;;;;;5062803;28;20520;-84
2023/01/10 13:02:05;;;;;;;35.50;4.68;;;11.70;99.90;;;;;;5063649;28;20114;-83
2023/01/10 13:04:35;;;;;;;40.75;4.32;;;11.70;99.90;;;;;;5066105;28;20093;-85
2023/01/10 13:07:02;;;;;;;37.70;4.20;;;11.70;99.90;;;;;;5063367;28;20020;-85
2023/01/10 13:09:29;;;;;;;34.20;4.00;;;11.70;99.90;;;;;;5051172;28;20025;-83
2023/01/10 13:11:55;;;;;;;38.85;5.00;;;11.70;99.90;;;;;;5065376;28;20048;-83